createdAt,value
2017-11-10T00:00:28.516Z,8.24
2017-11-10T00:01:09.126Z,8.23
2017-11-10T00:01:49.695Z,8.24
2017-11-10T00:02:30.258Z,8.19
2017-11-10T00:03:10.824Z,8.19
2017-11-10T00:03:51.407Z,8.19
2017-11-10T00:04:31.991Z,8.2
2017-11-10T00:05:12.572Z,8.24
2017-11-10T00:05:53.150Z,8.24
2017-11-10T00:06:33.724Z,8.24
2017-11-10T00:07:14.310Z,8.26
2017-11-10T00:07:54.885Z,8.27
2017-11-10T00:08:35.479Z,8.28
2017-11-10T00:09:16.046Z,8.24
2017-11-10T00:09:56.619Z,8.24
2017-11-10T00:10:37.248Z,8.23
2017-11-10T00:11:17.823Z,8.19
2017-11-10T00:11:58.447Z,8.23
2017-11-10T00:12:39.003Z,8.24
2017-11-10T00:13:19.595Z,8.24
2017-11-10T00:14:00.180Z,8.24
2017-11-10T00:14:40.805Z,8.23
2017-11-10T00:15:21.389Z,8.19
2017-11-10T00:16:01.977Z,8.24
2017-11-10T00:16:42.543Z,8.19
2017-11-10T00:17:23.183Z,8.19
2017-11-10T00:18:03.775Z,8.18
2017-11-10T00:18:44.343Z,8.2
2017-11-10T00:19:24.958Z,8.2
2017-11-10T00:20:05.579Z,8.3
2017-11-10T00:20:46.162Z,8.27
2017-11-10T00:21:26.774Z,8.24
2017-11-10T00:22:07.327Z,8.18
2017-11-10T00:22:47.932Z,8.23
2017-11-10T00:23:28.508Z,8.28
2017-11-10T00:24:09.143Z,8.23
2017-11-10T00:24:49.702Z,8.27
2017-11-10T00:25:30.265Z,8.23
2017-11-10T00:26:10.852Z,8.28
2017-11-10T00:26:51.539Z,8.27
2017-11-10T00:27:32.100Z,8.26
2017-11-10T00:28:12.684Z,8.3
2017-11-10T00:28:53.862Z,8.3
2017-11-10T00:29:34.418Z,8.27
2017-11-10T00:30:14.996Z,8.3
2017-11-10T00:30:55.604Z,8.27
2017-11-10T00:31:36.177Z,8.31
2017-11-10T00:32:16.745Z,8.23
2017-11-10T00:32:57.316Z,8.33
2017-11-10T00:33:37.908Z,8.33
2017-11-10T00:34:18.513Z,8.24
2017-11-10T00:34:59.083Z,8.26
2017-11-10T00:35:39.670Z,8.34
2017-11-10T00:36:20.234Z,8.3
2017-11-10T00:37:00.883Z,8.31
2017-11-10T00:37:41.446Z,8.31
2017-11-10T00:38:22.072Z,8.3
2017-11-10T00:39:02.623Z,8.3
2017-11-10T00:39:43.187Z,8.36
2017-11-10T00:40:23.751Z,8.33
2017-11-10T00:41:04.351Z,8.26
2017-11-10T00:41:44.923Z,8.28
2017-11-10T00:42:25.484Z,8.33
2017-11-10T00:43:06.127Z,8.26
2017-11-10T00:43:46.724Z,8.33
2017-11-10T00:44:27.304Z,8.3
2017-11-10T00:45:07.883Z,8.3
2017-11-10T00:45:48.450Z,8.28
2017-11-10T00:46:29.001Z,8.27
2017-11-10T00:47:09.581Z,8.28
2017-11-10T00:47:50.152Z,8.33
2017-11-10T00:48:30.741Z,8.27
2017-11-10T00:49:11.361Z,8.31
2017-11-10T00:49:51.940Z,8.28
2017-11-10T00:50:32.526Z,8.28
2017-11-10T00:51:13.143Z,8.3
2017-11-10T00:51:53.722Z,8.31
2017-11-10T00:52:34.282Z,8.36
2017-11-10T00:53:14.877Z,8.34
2017-11-10T00:53:55.455Z,8.27
2017-11-10T00:54:36.038Z,8.28
2017-11-10T00:55:16.658Z,8.33
2017-11-10T00:55:57.228Z,8.38
2017-11-10T00:56:37.768Z,8.3
2017-11-10T00:57:18.339Z,8.33
2017-11-10T00:57:58.930Z,8.28
2017-11-10T00:58:39.515Z,8.3
2017-11-10T00:59:20.068Z,8.33
2017-11-10T01:00:00.645Z,8.28
2017-11-10T01:00:41.230Z,8.33
2017-11-10T01:01:21.821Z,8.27
2017-11-10T01:02:02.372Z,8.31
2017-11-10T01:02:42.943Z,8.28
2017-11-10T01:03:23.532Z,8.31
2017-11-10T01:04:04.102Z,8.33
2017-11-10T01:04:44.661Z,8.31
2017-11-10T01:05:25.220Z,8.27
2017-11-10T01:06:05.788Z,8.34
2017-11-10T01:06:46.352Z,8.3
2017-11-10T01:07:26.929Z,8.3
2017-11-10T01:08:07.487Z,8.27
2017-11-10T01:08:48.073Z,8.19
2017-11-10T01:09:28.641Z,8.24
2017-11-10T01:10:09.208Z,8.27
2017-11-10T01:10:49.779Z,8.19
2017-11-10T01:11:30.359Z,8.2
2017-11-10T01:12:10.924Z,8.24
2017-11-10T01:12:51.477Z,8.24
2017-11-10T01:13:32.036Z,8.16
2017-11-10T01:14:12.609Z,8.12
2017-11-10T01:14:53.199Z,8.18
2017-11-10T01:15:33.777Z,8.13
2017-11-10T01:16:14.333Z,8.12
2017-11-10T01:16:54.899Z,8.16
2017-11-10T01:17:35.476Z,8.15
2017-11-10T01:18:16.057Z,8.13
2017-11-10T01:18:56.629Z,8.15
2017-11-10T01:19:37.187Z,8.13
2017-11-10T01:20:17.772Z,8.15
2017-11-10T01:20:58.352Z,8.12
2017-11-10T01:21:38.963Z,8.15
2017-11-10T01:22:19.504Z,8.15
2017-11-10T01:23:00.085Z,8.16
2017-11-10T01:23:40.646Z,8.18
2017-11-10T01:24:21.211Z,8.1
2017-11-10T01:25:01.793Z,8.12
2017-11-10T01:25:42.441Z,8.2
2017-11-10T01:26:23.013Z,8.05
2017-11-10T01:27:03.627Z,8.16
2017-11-10T01:27:44.335Z,8.09
2017-11-10T01:28:24.935Z,8.15
2017-11-10T01:29:05.486Z,8.12
2017-11-10T01:29:46.053Z,8.13
2017-11-10T01:30:26.610Z,8.12
2017-11-10T01:31:07.188Z,8.1
2017-11-10T01:31:47.812Z,8.03
2017-11-10T01:32:28.363Z,8.1
2017-11-10T01:33:08.930Z,8.12
2017-11-10T01:33:49.497Z,8.15
2017-11-10T01:34:30.079Z,8.13
2017-11-10T01:35:10.667Z,8.05
2017-11-10T01:35:51.231Z,8.06
2017-11-10T01:36:31.786Z,8.01
2017-11-10T01:37:12.375Z,8.06
2017-11-10T01:37:52.937Z,8.03
2017-11-10T01:38:33.527Z,8.01
2017-11-10T01:39:14.072Z,8
2017-11-10T01:39:54.657Z,8.01
2017-11-10T01:40:35.231Z,8.05
2017-11-10T01:41:15.798Z,7.98
2017-11-10T01:41:56.383Z,8.03
2017-11-10T01:42:36.976Z,8.05
2017-11-10T01:43:17.581Z,8.03
2017-11-10T01:43:58.175Z,8.05
2017-11-10T01:44:38.733Z,8.05
2017-11-10T01:45:19.304Z,8.09
2017-11-10T01:45:59.884Z,8.01
2017-11-10T01:46:40.442Z,7.93
2017-11-10T01:47:21.004Z,8.01
2017-11-10T01:48:01.575Z,7.91
2017-11-10T01:48:42.169Z,7.88
2017-11-10T01:49:22.776Z,7.98
2017-11-10T01:50:03.397Z,7.95
2017-11-10T01:50:43.977Z,8
2017-11-10T01:51:24.606Z,7.88
2017-11-10T01:52:05.207Z,7.88
2017-11-10T01:52:45.802Z,7.95
2017-11-10T01:53:26.387Z,7.94
2017-11-10T01:54:06.992Z,7.85
2017-11-10T01:54:47.597Z,7.85
2017-11-10T01:55:28.177Z,7.85
2017-11-10T01:56:08.794Z,7.87
2017-11-10T01:56:49.381Z,7.95
2017-11-10T01:57:29.969Z,7.91
2017-11-10T01:58:10.582Z,7.9
2017-11-10T01:58:51.155Z,7.87
2017-11-10T01:59:31.721Z,7.82
2017-11-10T02:00:12.294Z,7.85
2017-11-10T02:00:52.883Z,7.88
2017-11-10T02:01:33.456Z,7.82
2017-11-10T02:02:14.048Z,7.9
2017-11-10T02:02:54.623Z,7.77
2017-11-10T02:03:35.189Z,7.83
2017-11-10T02:04:15.758Z,7.82
2017-11-10T02:04:56.352Z,7.87
2017-11-10T02:05:36.927Z,7.9
2017-11-10T02:06:17.550Z,7.77
2017-11-10T02:06:58.109Z,7.87
2017-11-10T02:07:38.689Z,7.82
2017-11-10T02:08:19.248Z,7.9
2017-11-10T02:08:59.828Z,7.8
2017-11-10T02:09:40.401Z,7.79
2017-11-10T02:10:20.978Z,7.8
2017-11-10T02:11:01.549Z,7.85
2017-11-10T02:11:42.126Z,7.76
2017-11-10T02:12:22.693Z,7.79
2017-11-10T02:13:03.302Z,7.8
2017-11-10T02:13:43.881Z,7.88
2017-11-10T02:14:24.448Z,7.82
2017-11-10T02:15:05.029Z,7.77
2017-11-10T02:15:45.590Z,7.85
2017-11-10T02:16:26.180Z,7.82
2017-11-10T02:17:06.751Z,7.83
2017-11-10T02:17:47.317Z,7.8
2017-11-10T02:18:27.906Z,7.87
2017-11-10T02:19:08.488Z,7.76
2017-11-10T02:19:49.090Z,7.76
2017-11-10T02:20:29.679Z,7.76
2017-11-10T02:21:10.257Z,7.77
2017-11-10T02:21:50.831Z,7.77
2017-11-10T02:22:31.405Z,7.75
2017-11-10T02:23:11.967Z,7.76
2017-11-10T02:23:52.584Z,7.76
2017-11-10T02:24:33.139Z,7.7
2017-11-10T02:25:13.701Z,7.75
2017-11-10T02:25:54.277Z,7.75
2017-11-10T02:26:34.844Z,7.75
2017-11-10T02:27:15.406Z,7.72
2017-11-10T02:27:55.967Z,7.75
2017-11-10T02:28:36.560Z,7.72
2017-11-10T02:29:17.154Z,7.73
2017-11-10T02:29:57.755Z,7.72
2017-11-10T02:30:38.312Z,7.66
2017-11-10T02:31:18.881Z,7.67
2017-11-10T02:31:59.466Z,7.66
2017-11-10T02:32:40.046Z,7.6
2017-11-10T02:33:20.615Z,7.7
2017-11-10T02:34:01.202Z,7.67
2017-11-10T02:34:41.781Z,7.61
2017-11-10T02:35:22.354Z,7.67
2017-11-10T02:36:02.941Z,7.61
2017-11-10T02:36:43.555Z,7.67
2017-11-10T02:37:24.153Z,7.61
2017-11-10T02:38:04.732Z,7.61
2017-11-10T02:38:45.294Z,7.69
2017-11-10T02:39:25.858Z,7.63
2017-11-10T02:40:06.443Z,7.63
2017-11-10T02:40:47.003Z,7.7
2017-11-10T02:41:27.572Z,7.7
2017-11-10T02:42:08.138Z,7.63
2017-11-10T02:42:48.710Z,7.7
2017-11-10T02:43:29.269Z,7.72
2017-11-10T02:44:09.823Z,7.63
2017-11-10T02:44:50.376Z,7.66
2017-11-10T02:45:30.953Z,7.7
2017-11-10T02:46:11.570Z,7.66
2017-11-10T02:46:52.141Z,7.67
2017-11-10T02:47:32.722Z,7.63
2017-11-10T02:48:13.284Z,7.63
2017-11-10T02:48:53.870Z,7.63
2017-11-10T02:49:34.430Z,7.69
2017-11-10T02:50:14.999Z,7.61
2017-11-10T02:50:55.558Z,7.6
2017-11-10T02:51:36.110Z,7.6
2017-11-10T02:52:16.677Z,7.63
2017-11-10T02:52:57.248Z,7.57
2017-11-10T02:53:37.854Z,7.6
2017-11-10T02:54:18.456Z,7.66
2017-11-10T02:54:59.043Z,7.54
2017-11-10T02:55:39.609Z,7.58
2017-11-10T02:56:20.174Z,7.66
2017-11-10T02:57:00.753Z,7.6
2017-11-10T02:57:41.329Z,7.6
2017-11-10T02:58:21.894Z,7.56
2017-11-10T02:59:02.447Z,7.6
2017-11-10T02:59:43.036Z,7.61
2017-11-10T03:00:23.596Z,7.54
2017-11-10T03:01:04.166Z,7.56
2017-11-10T03:01:44.741Z,7.69
2017-11-10T03:02:25.305Z,7.6
2017-11-10T03:03:05.886Z,7.56
2017-11-10T03:03:46.460Z,7.56
2017-11-10T03:04:27.058Z,7.54
2017-11-10T03:05:07.663Z,7.58
2017-11-10T03:05:48.225Z,7.51
2017-11-10T03:06:28.792Z,7.57
2017-11-10T03:07:09.369Z,7.58
2017-11-10T03:07:49.929Z,7.51
2017-11-10T03:08:30.505Z,7.5
2017-11-10T03:09:11.074Z,7.54
2017-11-10T03:09:51.652Z,7.53
2017-11-10T03:10:32.226Z,7.5
2017-11-10T03:11:12.815Z,7.5
2017-11-10T03:11:53.378Z,7.5
2017-11-10T03:12:33.926Z,7.5
2017-11-10T03:13:14.488Z,7.5
2017-11-10T03:13:55.047Z,7.53
2017-11-10T03:14:35.610Z,7.54
2017-11-10T03:15:16.280Z,7.5
2017-11-10T03:15:56.885Z,7.54
2017-11-10T03:16:37.438Z,7.56
2017-11-10T03:17:17.990Z,7.58
2017-11-10T03:17:58.564Z,7.6
2017-11-10T03:18:39.147Z,7.66
2017-11-10T03:19:19.766Z,7.6
2017-11-10T03:20:00.353Z,7.6
2017-11-10T03:20:40.929Z,7.69
2017-11-10T03:21:21.501Z,7.66
2017-11-10T03:22:02.070Z,7.66
2017-11-10T03:22:42.659Z,7.58
2017-11-10T03:23:23.250Z,7.6
2017-11-10T03:24:03.830Z,7.57
2017-11-10T03:24:44.447Z,7.63
2017-11-10T03:25:25.015Z,7.53
2017-11-10T03:26:05.568Z,7.66
2017-11-10T03:26:46.141Z,7.66
2017-11-10T03:27:26.709Z,7.56
2017-11-10T03:28:07.284Z,7.6
2017-11-10T03:28:47.858Z,7.57
2017-11-10T03:29:28.417Z,7.61
2017-11-10T03:30:09.058Z,7.53
2017-11-10T03:30:49.618Z,7.66
2017-11-10T03:31:30.208Z,7.58
2017-11-10T03:32:10.804Z,7.61
2017-11-10T03:32:51.364Z,7.6
2017-11-10T03:33:31.942Z,7.58
2017-11-10T03:34:12.533Z,7.58
2017-11-10T03:34:53.115Z,7.57
2017-11-10T03:35:33.699Z,7.57
2017-11-10T03:36:14.273Z,7.63
2017-11-10T03:36:54.870Z,7.61
2017-11-10T03:37:35.484Z,7.58
2017-11-10T03:38:16.070Z,7.56
2017-11-10T03:38:56.650Z,7.6
2017-11-10T03:39:37.216Z,7.58
2017-11-10T03:40:17.816Z,7.67
2017-11-10T03:40:58.392Z,7.53
2017-11-10T03:41:38.957Z,7.47
2017-11-10T03:42:19.522Z,7.61
2017-11-10T03:43:00.098Z,7.57
2017-11-10T03:43:40.749Z,7.67
2017-11-10T03:44:21.321Z,7.58
2017-11-10T03:45:01.895Z,7.53
2017-11-10T03:45:42.463Z,7.53
2017-11-10T03:46:23.038Z,7.54
2017-11-10T03:47:03.631Z,7.51
2017-11-10T03:47:44.209Z,7.58
2017-11-10T03:48:24.769Z,7.51
2017-11-10T03:49:05.357Z,7.54
2017-11-10T03:49:45.934Z,7.63
2017-11-10T03:50:26.507Z,7.54
2017-11-10T03:51:07.079Z,7.54
2017-11-10T03:51:47.645Z,7.51
2017-11-10T03:52:28.218Z,7.53
2017-11-10T03:53:08.787Z,7.54
2017-11-10T03:53:49.369Z,7.56
2017-11-10T03:54:29.940Z,7.66
2017-11-10T03:55:10.490Z,7.66
2017-11-10T03:55:51.080Z,7.5
2017-11-10T03:56:31.635Z,7.58
2017-11-10T03:57:12.223Z,7.5
2017-11-10T03:57:52.798Z,7.56
2017-11-10T03:58:33.399Z,7.61
2017-11-10T03:59:13.980Z,7.6
2017-11-10T03:59:54.562Z,7.53
2017-11-10T04:00:35.126Z,7.66
2017-11-10T04:01:15.702Z,7.67
2017-11-10T04:01:56.306Z,7.56
2017-11-10T04:02:36.860Z,7.66
2017-11-10T04:03:17.419Z,7.61
2017-11-10T04:03:57.985Z,7.61
2017-11-10T04:04:38.561Z,7.61
2017-11-10T04:05:19.113Z,7.61
2017-11-10T04:05:59.680Z,7.54
2017-11-10T04:06:40.246Z,7.57
2017-11-10T04:07:20.834Z,7.66
2017-11-10T04:08:01.419Z,7.57
2017-11-10T04:08:41.982Z,7.57
2017-11-10T04:09:22.544Z,7.56
2017-11-10T04:10:03.108Z,7.6
2017-11-10T04:10:43.696Z,7.63
2017-11-10T04:11:24.258Z,7.58
2017-11-10T04:12:04.827Z,7.66
2017-11-10T04:12:45.411Z,7.54
2017-11-10T04:13:25.997Z,7.53
2017-11-10T04:14:06.673Z,7.51
2017-11-10T04:14:47.257Z,7.51
2017-11-10T04:15:27.833Z,7.53
2017-11-10T04:16:08.427Z,7.56
2017-11-10T04:16:49.004Z,7.5
2017-11-10T04:17:29.569Z,7.54
2017-11-10T04:18:10.189Z,7.56
2017-11-10T04:18:50.774Z,7.56
2017-11-10T04:19:31.351Z,7.51
2017-11-10T04:20:11.938Z,7.53
2017-11-10T04:20:52.521Z,7.54
2017-11-10T04:21:33.121Z,7.54
2017-11-10T04:22:13.724Z,7.54
2017-11-10T04:22:54.305Z,7.48
2017-11-10T04:23:34.857Z,7.54
2017-11-10T04:24:15.417Z,7.56
2017-11-10T04:24:55.991Z,7.51
2017-11-10T04:25:36.572Z,7.54
2017-11-10T04:26:17.154Z,7.51
2017-11-10T04:26:57.756Z,7.53
2017-11-10T04:27:38.340Z,7.53
2017-11-10T04:28:18.902Z,7.56
2017-11-10T04:28:59.504Z,7.5
2017-11-10T04:29:40.068Z,7.57
2017-11-10T04:30:20.654Z,7.53
2017-11-10T04:31:01.221Z,7.51
2017-11-10T04:31:41.800Z,7.53
2017-11-10T04:32:22.391Z,7.54
2017-11-10T04:33:02.980Z,7.48
2017-11-10T04:33:43.552Z,7.58
2017-11-10T04:34:24.129Z,7.53
2017-11-10T04:35:04.710Z,7.53
2017-11-10T04:35:45.419Z,7.51
2017-11-10T04:36:26.049Z,7.53
2017-11-10T04:37:06.614Z,7.53
2017-11-10T04:37:47.179Z,7.67
2017-11-10T04:38:27.754Z,7.54
2017-11-10T04:39:08.338Z,7.6
2017-11-10T04:39:48.932Z,7.61
2017-11-10T04:40:29.506Z,7.61
2017-11-10T04:41:10.075Z,7.6
2017-11-10T04:41:50.645Z,7.6
2017-11-10T04:42:31.234Z,7.56
2017-11-10T04:43:11.794Z,7.56
2017-11-10T04:43:52.375Z,7.53
2017-11-10T04:44:32.935Z,7.6
2017-11-10T04:45:13.500Z,7.6
2017-11-10T04:45:54.061Z,7.63
2017-11-10T04:46:34.623Z,7.57
2017-11-10T04:47:15.215Z,7.57
2017-11-10T04:47:55.783Z,7.61
2017-11-10T04:48:36.354Z,7.6
2017-11-10T04:49:16.931Z,7.6
2017-11-10T04:49:57.495Z,7.61
2017-11-10T04:50:38.062Z,7.6
2017-11-10T04:51:18.643Z,7.66
2017-11-10T04:51:59.247Z,7.61
2017-11-10T04:52:39.916Z,7.67
2017-11-10T04:53:20.480Z,7.69
2017-11-10T04:54:01.047Z,7.72
2017-11-10T04:54:41.613Z,7.76
2017-11-10T04:55:22.177Z,7.73
2017-11-10T04:56:02.749Z,7.73
2017-11-10T04:56:43.317Z,7.72
2017-11-10T04:57:23.909Z,7.76
2017-11-10T04:58:04.501Z,7.7
2017-11-10T04:58:45.093Z,7.75
2017-11-10T04:59:25.662Z,7.8
2017-11-10T05:00:06.255Z,7.75
2017-11-10T05:00:46.886Z,7.7
2017-11-10T05:01:27.454Z,7.75
2017-11-10T05:02:08.031Z,7.7
2017-11-10T05:02:48.597Z,7.76
2017-11-10T05:03:29.195Z,7.67
2017-11-10T05:04:09.763Z,7.69
2017-11-10T05:04:50.320Z,7.83
2017-11-10T05:05:30.876Z,7.76
2017-11-10T05:06:11.484Z,7.77
2017-11-10T05:06:52.075Z,7.82
2017-11-10T05:07:32.655Z,7.77
2017-11-10T05:08:13.244Z,7.79
2017-11-10T05:08:53.858Z,7.77
2017-11-10T05:09:34.651Z,7.77
2017-11-10T05:10:15.220Z,7.85
2017-11-10T05:10:55.796Z,7.83
2017-11-10T05:11:36.363Z,7.91
2017-11-10T05:12:17.183Z,7.77
2017-11-10T05:12:58.014Z,7.77
2017-11-10T05:13:38.644Z,7.76
2017-11-10T05:14:19.224Z,7.9
2017-11-10T05:14:59.817Z,7.77
2017-11-10T05:15:40.390Z,7.85
2017-11-10T05:16:21.872Z,7.83
2017-11-10T05:17:02.425Z,7.83
2017-11-10T05:17:43.881Z,7.9
2017-11-10T05:18:25.180Z,7.77
2017-11-10T05:19:05.732Z,7.82
2017-11-10T05:19:46.316Z,7.8
2017-11-10T05:20:26.888Z,7.76
2017-11-10T05:21:07.472Z,7.87
2017-11-10T05:21:48.233Z,7.87
2017-11-10T05:22:29.225Z,7.77
2017-11-10T05:23:09.907Z,7.82
2017-11-10T05:23:50.471Z,7.82
2017-11-10T05:24:32.280Z,7.85
2017-11-10T05:25:12.857Z,7.83
2017-11-10T05:25:53.470Z,7.88
2017-11-10T05:26:34.050Z,7.9
2017-11-10T05:27:14.679Z,7.91
2017-11-10T05:27:55.265Z,7.83
2017-11-10T05:28:35.837Z,7.87
2017-11-10T05:29:16.437Z,7.82
2017-11-10T05:29:56.983Z,7.75
2017-11-10T05:30:37.543Z,7.88
2017-11-10T05:31:18.119Z,7.9
2017-11-10T05:31:58.684Z,7.79
2017-11-10T05:32:39.266Z,7.83
2017-11-10T05:33:19.834Z,7.9
2017-11-10T05:34:00.401Z,7.93
2017-11-10T05:34:40.975Z,7.8
2017-11-10T05:35:21.576Z,7.8
2017-11-10T05:36:02.159Z,7.77
2017-11-10T05:36:42.718Z,7.77
2017-11-10T05:37:23.324Z,7.75
2017-11-10T05:38:03.900Z,7.93
2017-11-10T05:38:44.456Z,7.85
2017-11-10T05:39:25.820Z,7.82
2017-11-10T05:40:06.396Z,7.93
2017-11-10T05:40:46.956Z,7.9
2017-11-10T05:41:27.689Z,7.98
2017-11-10T05:42:08.754Z,7.97
2017-11-10T05:42:49.503Z,8
2017-11-10T05:43:30.076Z,7.93
2017-11-10T05:44:10.648Z,7.9
2017-11-10T05:44:51.224Z,7.91
2017-11-10T05:45:31.801Z,7.98
2017-11-10T05:46:12.385Z,8
2017-11-10T05:46:52.997Z,7.91
2017-11-10T05:47:33.569Z,7.94
2017-11-10T05:48:14.138Z,7.9
2017-11-10T05:48:54.727Z,7.93
2017-11-10T05:49:35.298Z,7.98
2017-11-10T05:50:15.866Z,8
2017-11-10T05:50:56.439Z,7.95
2017-11-10T05:51:37.035Z,7.93
2017-11-10T05:52:17.604Z,7.98
2017-11-10T05:52:58.177Z,7.93
2017-11-10T05:53:38.746Z,7.91
2017-11-10T05:54:19.305Z,7.87
2017-11-10T05:54:59.892Z,7.91
2017-11-10T05:55:40.485Z,7.98
2017-11-10T05:56:21.084Z,7.93
2017-11-10T05:57:01.683Z,7.93
2017-11-10T05:57:42.256Z,7.95
2017-11-10T05:58:22.824Z,7.98
2017-11-10T05:59:03.397Z,7.9
2017-11-10T05:59:44.003Z,7.95
2017-11-10T06:00:24.555Z,7.91
2017-11-10T06:01:05.152Z,8.05
2017-11-10T06:01:45.682Z,8.01
2017-11-10T06:02:26.243Z,7.91
2017-11-10T06:03:06.813Z,7.93
2017-11-10T06:03:47.402Z,7.93
2017-11-10T06:04:27.947Z,7.97
2017-11-10T06:05:08.521Z,7.95
2017-11-10T06:05:49.092Z,8
2017-11-10T06:06:29.894Z,7.93
2017-11-10T06:07:10.466Z,7.87
2017-11-10T06:07:51.030Z,7.94
2017-11-10T06:08:31.627Z,7.94
2017-11-10T06:09:12.200Z,7.95
2017-11-10T06:09:52.764Z,7.91
2017-11-10T06:10:33.331Z,7.87
2017-11-10T06:11:13.945Z,7.94
2017-11-10T06:11:54.736Z,7.94
2017-11-10T06:12:35.585Z,7.97
2017-11-10T06:13:16.163Z,7.95
2017-11-10T06:13:57.780Z,7.85
2017-11-10T06:14:38.360Z,7.82
2017-11-10T06:15:20.058Z,7.9
2017-11-10T06:16:00.433Z,7.85
2017-11-10T06:16:41.044Z,7.9
2017-11-10T06:17:21.612Z,7.97
2017-11-10T06:18:02.199Z,7.98
2017-11-10T06:18:42.758Z,7.93
2017-11-10T06:19:23.407Z,8
2017-11-10T06:20:03.989Z,7.9
2017-11-10T06:20:44.555Z,7.97
2017-11-10T06:21:25.123Z,7.95
2017-11-10T06:22:05.696Z,7.97
2017-11-10T06:22:46.259Z,7.87
2017-11-10T06:23:26.828Z,7.83
2017-11-10T06:24:07.401Z,7.9
2017-11-10T06:24:47.967Z,7.9
2017-11-10T06:25:28.561Z,7.91
2017-11-10T06:26:09.168Z,7.9
2017-11-10T06:26:49.742Z,7.82
2017-11-10T06:27:30.309Z,7.82
2017-11-10T06:28:10.916Z,7.97
2017-11-10T06:28:51.526Z,7.87
2017-11-10T06:29:32.106Z,7.9
2017-11-10T06:30:12.666Z,7.97
2017-11-10T06:30:53.259Z,8.01
2017-11-10T06:31:33.860Z,7.95
2017-11-10T06:32:14.430Z,7.93
2017-11-10T06:32:55.011Z,7.94
2017-11-10T06:33:35.594Z,8.03
2017-11-10T06:34:16.185Z,7.98
2017-11-10T06:34:56.768Z,7.98
2017-11-10T06:35:37.328Z,7.9
2017-11-10T06:36:17.938Z,8.1
2017-11-10T06:36:58.528Z,8.2
2017-11-10T06:37:39.116Z,8.45
2017-11-10T06:38:19.720Z,8.55
2017-11-10T06:39:00.318Z,8.67
2017-11-10T06:39:41.180Z,8.87
2017-11-10T06:40:21.939Z,8.94
2017-11-10T06:41:02.523Z,9.06
2017-11-10T06:41:43.088Z,9.28
2017-11-10T06:42:23.673Z,9.46
2017-11-10T06:43:04.354Z,9.58
2017-11-10T06:43:44.949Z,9.68
2017-11-10T06:44:25.504Z,9.77
2017-11-10T06:45:06.147Z,9.74
2017-11-10T06:45:46.692Z,9.89
2017-11-10T06:46:27.263Z,9.89
2017-11-10T06:47:07.827Z,9.98
2017-11-10T06:47:48.427Z,10.1
2017-11-10T06:48:29.000Z,10.15
2017-11-10T06:49:09.588Z,10.22
2017-11-10T06:49:50.179Z,10.31
2017-11-10T06:50:30.745Z,10.23
2017-11-10T06:51:11.328Z,10.33
2017-11-10T06:51:51.933Z,10.4
2017-11-10T06:52:32.530Z,10.46
2017-11-10T06:53:13.129Z,10.56
2017-11-10T06:53:53.693Z,10.59
2017-11-10T06:54:34.287Z,10.56
2017-11-10T06:55:14.857Z,10.51
2017-11-10T06:55:55.509Z,10.23
2017-11-10T06:56:36.088Z,10.16
2017-11-10T06:57:16.668Z,10.05
2017-11-10T06:57:57.267Z,9.8
2017-11-10T06:58:37.844Z,9.74
2017-11-10T06:59:18.440Z,9.72
2017-11-10T06:59:59.043Z,9.56
2017-11-10T07:00:39.607Z,9.47
2017-11-10T07:01:20.180Z,9.32
2017-11-10T07:02:00.808Z,9.25
2017-11-10T07:02:41.390Z,9.18
2017-11-10T07:03:21.979Z,9.13
2017-11-10T07:04:02.552Z,9.13
2017-11-10T07:04:43.140Z,9
2017-11-10T07:05:23.751Z,9
2017-11-10T07:06:04.312Z,8.94
2017-11-10T07:06:44.888Z,8.99
2017-11-10T07:07:25.462Z,8.99
2017-11-10T07:08:06.026Z,8.88
2017-11-10T07:08:46.591Z,8.92
2017-11-10T07:09:27.141Z,8.84
2017-11-10T07:10:07.717Z,8.88
2017-11-10T07:10:48.305Z,8.74
2017-11-10T07:11:28.908Z,8.79
2017-11-10T07:12:09.500Z,8.76
2017-11-10T07:12:50.082Z,8.64
2017-11-10T07:13:30.658Z,8.69
2017-11-10T07:14:11.229Z,8.73
2017-11-10T07:14:51.798Z,8.61
2017-11-10T07:15:33.151Z,8.64
2017-11-10T07:16:13.723Z,8.6
2017-11-10T07:16:54.301Z,8.49
2017-11-10T07:17:34.891Z,8.49
2017-11-10T07:18:15.472Z,8.48
2017-11-10T07:18:56.048Z,8.46
2017-11-10T07:19:36.645Z,8.48
2017-11-10T07:20:17.305Z,8.49
2017-11-10T07:20:57.903Z,8.44
2017-11-10T07:21:38.491Z,8.42
2017-11-10T07:22:19.055Z,8.42
2017-11-10T07:22:59.642Z,8.42
2017-11-10T07:23:40.196Z,8.44
2017-11-10T07:24:20.829Z,8.48
2017-11-10T07:25:01.377Z,8.41
2017-11-10T07:25:41.976Z,8.37
2017-11-10T07:26:22.556Z,8.33
2017-11-10T07:27:03.176Z,8.38
2017-11-10T07:27:43.760Z,8.37
2017-11-10T07:28:24.323Z,8.34
2017-11-10T07:29:04.946Z,8.36
2017-11-10T07:29:45.534Z,8.33
2017-11-10T07:30:26.097Z,8.33
2017-11-10T07:31:06.712Z,8.33
2017-11-10T07:31:47.312Z,8.31
2017-11-10T07:32:27.889Z,8.36
2017-11-10T07:33:08.481Z,8.3
2017-11-10T07:33:49.070Z,8.3
2017-11-10T07:34:29.656Z,8.3
2017-11-10T07:35:10.221Z,8.34
2017-11-10T07:35:50.792Z,8.23
2017-11-10T07:36:31.404Z,8.28
2017-11-10T07:37:11.991Z,8.24
2017-11-10T07:37:52.570Z,8.19
2017-11-10T07:38:33.158Z,8.16
2017-11-10T07:39:13.761Z,8.18
2017-11-10T07:39:54.348Z,8.18
2017-11-10T07:40:34.954Z,8.18
2017-11-10T07:41:15.522Z,8.16
2017-11-10T07:41:56.134Z,8.1
2017-11-10T07:42:36.710Z,8.18
2017-11-10T07:43:17.317Z,8.09
2017-11-10T07:43:57.969Z,8.09
2017-11-10T07:44:38.549Z,8.12
2017-11-10T07:45:19.105Z,8.05
2017-11-10T07:45:59.682Z,8.06
2017-11-10T07:46:40.271Z,8.01
2017-11-10T07:47:20.871Z,8.06
2017-11-10T07:48:01.451Z,8.05
2017-11-10T07:48:42.054Z,8.03
2017-11-10T07:49:22.620Z,8.01
2017-11-10T07:50:03.182Z,8.06
2017-11-10T07:50:43.766Z,8.06
2017-11-10T07:51:24.329Z,8.06
2017-11-10T07:52:04.910Z,8
2017-11-10T07:52:45.472Z,8.01
2017-11-10T07:53:26.036Z,8.12
2017-11-10T07:54:06.600Z,8.01
2017-11-10T07:54:47.172Z,8.09
2017-11-10T07:55:27.740Z,8.03
2017-11-10T07:56:08.302Z,8.01
2017-11-10T07:56:48.905Z,8.01
2017-11-10T07:57:29.473Z,8.01
2017-11-10T07:58:10.076Z,8
2017-11-10T07:58:50.677Z,8.01
2017-11-10T07:59:31.344Z,8.06
2017-11-10T08:00:11.920Z,8.03
2017-11-10T08:00:52.761Z,7.97
2017-11-10T08:01:33.297Z,8.06
2017-11-10T08:02:13.874Z,8.09
2017-11-10T08:02:54.462Z,8.03
2017-11-10T08:03:35.066Z,8
2017-11-10T08:04:15.645Z,7.97
2017-11-10T08:04:56.230Z,8.01
2017-11-10T08:05:36.818Z,7.98
2017-11-10T08:06:17.384Z,7.98
2017-11-10T08:06:57.950Z,7.97
2017-11-10T08:07:38.525Z,8
2017-11-10T08:08:19.094Z,8.1
2017-11-10T08:08:59.712Z,8.03
2017-11-10T08:09:40.257Z,8.03
2017-11-10T08:10:20.822Z,8.03
2017-11-10T08:11:01.420Z,8.03
2017-11-10T08:11:41.989Z,7.98
2017-11-10T08:12:22.557Z,8.05
2017-11-10T08:13:03.137Z,8.08
2017-11-10T08:13:43.724Z,8.06
2017-11-10T08:14:24.296Z,8.09
2017-11-10T08:15:04.851Z,8.01
2017-11-10T08:15:45.436Z,8.08
2017-11-10T08:16:26.038Z,8.06
2017-11-10T08:17:06.681Z,7.97
2017-11-10T08:17:47.270Z,8.12
2017-11-10T08:18:27.843Z,8.12
2017-11-10T08:19:08.413Z,8
2017-11-10T08:19:48.985Z,8.03
2017-11-10T08:20:29.552Z,8.01
2017-11-10T08:21:10.125Z,8.03
2017-11-10T08:21:50.749Z,8.05
2017-11-10T08:22:31.352Z,8
2017-11-10T08:23:11.974Z,8.03
2017-11-10T08:23:52.559Z,8.05
2017-11-10T08:24:33.128Z,8.06
2017-11-10T08:25:13.728Z,8.12
2017-11-10T08:25:54.287Z,8.01
2017-11-10T08:26:34.874Z,8.15
2017-11-10T08:27:15.446Z,8.18
2017-11-10T08:27:56.037Z,8.15
2017-11-10T08:28:36.590Z,8.05
2017-11-10T08:29:17.161Z,8.12
2017-11-10T08:29:57.738Z,8.15
2017-11-10T08:30:38.323Z,8.15
2017-11-10T08:31:18.900Z,8.13
2017-11-10T08:31:59.479Z,8.12
2017-11-10T08:32:40.078Z,8.1
2017-11-10T08:33:20.665Z,8.12
2017-11-10T08:34:01.256Z,8.1
2017-11-10T08:34:41.865Z,8.13
2017-11-10T08:35:22.458Z,8.13
2017-11-10T08:36:03.051Z,8.18
2017-11-10T08:36:43.640Z,8.13
2017-11-10T08:37:24.213Z,8.1
2017-11-10T08:38:04.789Z,8.16
2017-11-10T08:38:45.352Z,8.1
2017-11-10T08:39:25.918Z,8.13
2017-11-10T08:40:06.495Z,8.1
2017-11-10T08:40:47.076Z,8.12
2017-11-10T08:41:27.650Z,8.15
2017-11-10T08:42:08.213Z,8.13
2017-11-10T08:42:48.803Z,8.15
2017-11-10T08:43:29.383Z,8.18
2017-11-10T08:44:09.943Z,8.15
2017-11-10T08:44:50.524Z,8.12
2017-11-10T08:45:31.091Z,8.12
2017-11-10T08:46:11.668Z,8.13
2017-11-10T08:46:52.270Z,8.13
2017-11-10T08:47:32.821Z,8.13
2017-11-10T08:48:13.421Z,8.12
2017-11-10T08:48:54.183Z,8.15
2017-11-10T08:49:34.771Z,8.12
2017-11-10T08:50:15.339Z,8.18
2017-11-10T08:50:55.911Z,8.13
2017-11-10T08:51:36.534Z,8.16
2017-11-10T08:52:17.108Z,8.13
2017-11-10T08:52:57.691Z,8.13
2017-11-10T08:53:38.252Z,8.12
2017-11-10T08:54:18.813Z,8.16
2017-11-10T08:54:59.421Z,8.09
2017-11-10T08:55:39.996Z,8.13
2017-11-10T08:56:20.601Z,8.19
2017-11-10T08:57:01.182Z,8.13
2017-11-10T08:57:41.790Z,8.16
2017-11-10T08:58:22.351Z,8.1
2017-11-10T08:59:02.918Z,8.13
2017-11-10T08:59:43.503Z,8.1
2017-11-10T09:00:24.084Z,8.12
2017-11-10T09:01:04.652Z,8.09
2017-11-10T09:01:45.256Z,8.18
2017-11-10T09:02:25.845Z,8.13
2017-11-10T09:03:06.435Z,8.13
2017-11-10T09:03:47.017Z,8.1